createdAt,value
2023-12-18T01:19:50.673Z,1017.61
2023-12-18T01:25:50.529Z,1017.65
2023-12-18T01:27:50.638Z,1017.63
2023-12-18T01:31:50.443Z,1017.60
2023-12-18T01:32:50.546Z,1017.59
2023-12-18T01:33:50.484Z,1017.54
2023-12-18T01:34:50.427Z,1017.58
2023-12-18T01:35:50.417Z,1017.50
2023-12-18T01:36:50.393Z,1017.55
2023-12-18T01:37:50.394Z,1017.56
2023-12-18T01:38:50.378Z,1017.63
2023-12-18T01:40:50.366Z,1017.68
2023-12-18T01:41:50.374Z,1017.72
2023-12-18T01:42:50.356Z,1017.75
2023-12-18T01:43:50.332Z,1017.76
2023-12-18T01:44:50.317Z,1017.77
2023-12-18T01:45:50.311Z,1017.79
2023-12-18T01:46:50.290Z,1017.73
2023-12-18T01:47:50.397Z,1017.72
2023-12-18T01:48:50.482Z,1017.64
2023-12-18T01:49:50.379Z,1017.70
2023-12-18T01:50:50.263Z,1017.74
2023-12-18T01:51:50.260Z,1017.72
2023-12-18T01:52:50.225Z,1017.72
2023-12-18T01:53:50.216Z,1017.73
2023-12-18T01:54:50.204Z,1017.72
2023-12-18T01:55:50.202Z,1017.72
2023-12-18T01:57:50.225Z,1017.76
2023-12-18T01:58:50.172Z,1017.74
2023-12-18T02:01:50.149Z,1017.71
2023-12-18T02:03:50.220Z,1017.77
2023-12-18T02:07:50.080Z,1017.73
2023-12-18T02:08:50.069Z,1017.73
2023-12-18T02:09:50.065Z,1017.71
2023-12-18T02:11:50.029Z,1017.68
2023-12-18T02:12:50.085Z,1017.65
2023-12-18T02:13:50.047Z,1017.64
2023-12-18T02:15:49.984Z,1017.61
2023-12-18T02:16:49.985Z,1017.59
2023-12-18T02:18:50.014Z,1017.58
2023-12-18T02:19:49.996Z,1017.55
2023-12-18T02:20:49.960Z,1017.53
2023-12-18T02:21:49.931Z,1017.49
2023-12-18T02:22:49.951Z,1017.48
2023-12-18T02:23:49.915Z,1017.49
2023-12-18T02:24:49.912Z,1017.49
2023-12-18T02:25:49.910Z,1017.50
2023-12-18T02:26:49.916Z,1017.47
2023-12-18T02:27:49.923Z,1017.43
2023-12-18T02:28:49.867Z,1017.43
2023-12-18T02:29:49.867Z,1017.37
2023-12-18T02:30:49.904Z,1017.41
2023-12-18T02:31:49.830Z,1017.41
2023-12-18T02:33:50.408Z,1017.40
2023-12-18T02:34:49.987Z,1017.35
2023-12-18T02:40:49.733Z,1017.39
2023-12-18T02:41:49.762Z,1017.38
2023-12-18T02:46:49.681Z,1017.44
2023-12-18T02:47:49.689Z,1017.50
2023-12-18T02:49:49.708Z,1017.45
2023-12-18T02:50:49.630Z,1017.48
2023-12-18T02:51:49.686Z,1017.51
2023-12-18T02:52:49.615Z,1017.50
2023-12-18T02:53:49.616Z,1017.49
2023-12-18T02:54:49.589Z,1017.46
2023-12-18T02:55:49.589Z,1017.46
2023-12-18T02:56:49.560Z,1017.40
2023-12-18T02:57:49.584Z,1017.44
2023-12-18T02:58:49.553Z,1017.42
2023-12-18T02:59:49.531Z,1017.42
2023-12-18T03:00:49.610Z,1017.47
2023-12-18T03:01:49.542Z,1017.46
2023-12-18T03:02:49.535Z,1017.46
2023-12-18T03:03:49.576Z,1017.48
2023-12-18T03:04:49.507Z,1017.49
2023-12-18T03:05:49.492Z,1017.44
2023-12-18T03:06:49.475Z,1017.48
2023-12-18T03:07:49.449Z,1017.45
2023-12-18T03:08:49.442Z,1017.44
2023-12-18T03:09:49.627Z,1017.44
2023-12-18T03:10:49.433Z,1017.45
2023-12-18T03:12:49.459Z,1017.47
2023-12-18T03:13:49.385Z,1017.46
2023-12-18T03:14:49.380Z,1017.42
2023-12-18T03:15:49.421Z,1017.45
2023-12-18T03:16:49.361Z,1017.49
2023-12-18T03:17:49.513Z,1017.44
2023-12-18T03:18:49.463Z,1017.43
2023-12-18T03:19:49.384Z,1017.40
2023-12-18T03:22:49.306Z,1017.35
2023-12-18T03:23:49.288Z,1017.30
2023-12-18T03:24:49.384Z,1017.27
2023-12-18T03:25:49.275Z,1017.28
2023-12-18T03:26:49.252Z,1017.32
2023-12-18T03:31:49.210Z,1017.36
2023-12-18T03:37:49.156Z,1017.26
2023-12-18T07:10:21.725Z,1017.38
2023-12-18T07:56:21.231Z,1017.46
2023-12-18T07:58:21.224Z,1017.51
2023-12-18T07:59:21.298Z,1017.51
2023-12-18T08:04:21.218Z,1017.57
2023-12-18T08:06:21.179Z,1017.54
2023-12-18T08:07:21.128Z,1017.59
2023-12-18T08:08:21.114Z,1017.52
2023-12-18T08:09:21.133Z,1017.51
2023-12-18T08:10:21.088Z,1017.47
2023-12-18T08:11:21.096Z,1017.42
2023-12-18T08:12:21.098Z,1017.50
2023-12-18T08:13:21.073Z,1017.46
2023-12-18T08:14:21.053Z,1017.47
2023-12-18T08:15:21.097Z,1017.47
2023-12-18T08:16:21.049Z,1017.45
2023-12-18T08:17:21.018Z,1017.51
2023-12-18T08:18:21.221Z,1017.49
2023-12-18T08:19:21.173Z,1017.49
2023-12-18T08:20:20.988Z,1017.43
2023-12-18T08:21:21.055Z,1017.49
2023-12-18T08:22:21.008Z,1017.42
2023-12-18T08:23:20.966Z,1017.45
2023-12-18T08:24:20.977Z,1017.44
2023-12-18T08:25:20.936Z,1017.44
2023-12-18T08:26:21.018Z,1017.43
2023-12-18T08:27:20.956Z,1017.45
2023-12-18T08:28:20.924Z,1017.35
2023-12-18T08:29:20.900Z,1017.40
2023-12-18T08:30:20.949Z,1017.41
2023-12-18T08:31:21.064Z,1017.40
2023-12-18T08:32:20.871Z,1017.31
2023-12-18T08:33:20.944Z,1017.27
2023-12-18T08:34:20.925Z,1017.24
2023-12-18T08:35:20.838Z,1017.23
2023-12-18T08:36:21.007Z,1017.20
2023-12-18T08:37:20.841Z,1017.20
2023-12-18T08:38:20.816Z,1017.17
2023-12-18T08:39:23.115Z,1017.15
2023-12-18T08:40:20.792Z,1017.16
2023-12-18T08:41:20.777Z,1017.22
2023-12-18T08:42:20.805Z,1017.14
2023-12-18T08:43:20.769Z,1017.22
2023-12-18T08:44:20.749Z,1017.23
2023-12-18T08:45:20.750Z,1017.25
2023-12-18T08:46:20.741Z,1017.21
2023-12-18T08:47:20.712Z,1017.26
2023-12-18T08:48:20.804Z,1017.26
2023-12-18T08:49:20.954Z,1017.30
2023-12-18T08:50:20.686Z,1017.28
2023-12-18T08:51:20.697Z,1017.31
2023-12-18T08:52:20.672Z,1017.30
2023-12-18T08:53:20.705Z,1017.29
2023-12-18T08:54:20.682Z,1017.31
2023-12-18T08:55:20.630Z,1017.33
2023-12-18T08:56:20.631Z,1017.33
2023-12-18T08:57:20.649Z,1017.30
2023-12-18T08:58:20.610Z,1017.27
2023-12-18T08:59:21.776Z,1017.33
2023-12-18T09:00:20.611Z,1017.34
2023-12-18T09:01:20.843Z,1017.34
2023-12-18T09:02:20.578Z,1017.33
2023-12-18T09:03:20.625Z,1017.36
2023-12-18T09:04:20.618Z,1017.33
2023-12-18T09:05:20.535Z,1017.30
2023-12-18T09:06:20.884Z,1017.30
2023-12-18T09:07:20.568Z,1017.28
2023-12-18T09:08:20.513Z,1017.22
2023-12-18T09:09:20.540Z,1017.23
2023-12-18T09:10:20.483Z,1017.22
2023-12-18T09:11:22.614Z,1017.24
2023-12-18T09:12:20.502Z,1017.20
2023-12-18T09:13:20.455Z,1017.26
2023-12-18T09:14:20.440Z,1017.16
2023-12-18T09:15:20.461Z,1017.18
2023-12-18T09:16:20.421Z,1017.20
2023-12-18T09:17:20.410Z,1017.21
2023-12-18T09:18:20.501Z,1017.17
2023-12-18T09:19:20.503Z,1017.15
2023-12-18T09:20:20.381Z,1017.12
2023-12-18T09:21:20.420Z,1017.15
2023-12-18T09:22:20.457Z,1017.14
2023-12-18T09:23:20.360Z,1017.10
2023-12-18T09:24:20.388Z,1017.14
2023-12-18T09:25:20.353Z,1017.15
2023-12-18T09:26:20.319Z,1017.17
2023-12-18T09:27:20.346Z,1017.19
2023-12-18T09:28:20.299Z,1017.22
2023-12-18T09:29:20.328Z,1017.20
2023-12-18T09:30:20.335Z,1017.19
2023-12-18T09:31:20.392Z,1017.24
2023-12-18T09:32:20.370Z,1017.23
2023-12-18T09:33:20.400Z,1017.24
2023-12-18T09:34:20.465Z,1017.27
2023-12-18T09:35:20.329Z,1017.21
2023-12-18T09:36:20.302Z,1017.21
2023-12-18T09:37:20.208Z,1017.21
2023-12-18T09:38:20.196Z,1017.22
2023-12-18T09:39:20.237Z,1017.20
2023-12-18T09:40:20.179Z,1017.15
2023-12-18T09:41:20.196Z,1017.17
2023-12-18T09:42:21.910Z,1017.14
2023-12-18T09:43:20.152Z,1017.16
2023-12-18T09:44:20.134Z,1017.15
2023-12-18T09:45:20.168Z,1017.16
2023-12-18T09:46:20.114Z,1017.10
2023-12-18T09:47:20.120Z,1017.11
2023-12-18T09:48:20.356Z,1017.12
2023-12-18T09:49:20.134Z,1017.17
2023-12-18T09:50:20.079Z,1017.14
2023-12-18T09:51:20.108Z,1017.06
2023-12-18T09:52:20.077Z,1017.14
2023-12-18T09:53:20.043Z,1017.07
2023-12-18T09:54:20.058Z,1017.07
2023-12-18T09:55:20.027Z,1017.03
2023-12-18T09:56:20.011Z,1017.02
2023-12-18T09:57:20.176Z,1017.01
2023-12-18T09:58:20.000Z,1017.04
2023-12-18T09:59:19.981Z,1017.03
2023-12-18T10:00:26.046Z,1017.05
2023-12-18T10:01:20.111Z,1017.06
2023-12-18T10:02:19.955Z,1017.06
2023-12-18T10:03:20.070Z,1017.07
2023-12-18T10:04:19.999Z,1017.06
2023-12-18T10:05:19.956Z,1017.07
2023-12-18T10:06:19.985Z,1017.09
2023-12-18T10:07:19.896Z,1017.11
2023-12-18T10:08:19.915Z,1017.09
2023-12-18T10:09:19.897Z,1017.11
2023-12-18T10:10:19.880Z,1017.11
2023-12-18T10:11:19.862Z,1017.06
2023-12-18T10:12:19.881Z,1017.06
2023-12-18T10:13:19.861Z,1017.03
2023-12-18T10:14:19.822Z,1017.06
2023-12-18T10:15:19.812Z,1017.03
2023-12-18T10:16:19.829Z,1017.06
2023-12-18T10:17:19.791Z,1017.01
2023-12-18T10:18:19.886Z,1016.99
2023-12-18T10:19:19.856Z,1017.01
2023-12-18T10:20:19.764Z,1016.91
2023-12-18T10:21:19.785Z,1016.90
2023-12-18T10:22:19.743Z,1016.88
2023-12-18T10:23:19.744Z,1016.84
2023-12-18T10:24:19.745Z,1016.88
2023-12-18T10:25:19.714Z,1016.87
2023-12-18T10:26:19.709Z,1016.82
2023-12-18T10:27:19.770Z,1016.76
2023-12-18T10:28:19.683Z,1016.72
2023-12-18T10:29:19.697Z,1016.68
2023-12-18T10:30:19.750Z,1016.71
2023-12-18T10:31:19.786Z,1016.70
2023-12-18T10:32:19.633Z,1016.73
2023-12-18T10:33:19.749Z,1016.72
2023-12-18T10:34:19.826Z,1016.67
2023-12-18T10:35:19.611Z,1016.65
2023-12-18T10:36:19.702Z,1016.66
2023-12-18T10:37:19.604Z,1016.60
2023-12-18T10:38:19.577Z,1016.56
2023-12-18T10:39:19.595Z,1016.61
2023-12-18T10:40:19.559Z,1016.58
2023-12-18T10:41:19.539Z,1016.60
2023-12-18T10:42:19.583Z,1016.61
2023-12-18T10:43:19.524Z,1016.59
2023-12-18T10:44:19.517Z,1016.57
2023-12-18T10:45:19.545Z,1016.54
2023-12-18T10:46:19.507Z,1016.51
2023-12-18T10:47:19.479Z,1016.50
2023-12-18T10:48:19.526Z,1016.48
2023-12-18T10:49:19.671Z,1016.47
2023-12-18T10:50:19.450Z,1016.45
2023-12-18T10:51:19.455Z,1016.46
2023-12-18T10:52:19.425Z,1016.46
2023-12-18T10:53:19.418Z,1016.44
2023-12-18T10:54:19.443Z,1016.44
2023-12-18T10:55:19.393Z,1016.42
2023-12-18T10:56:19.380Z,1016.41
2023-12-18T10:57:19.467Z,1016.40
2023-12-18T10:58:19.367Z,1016.41
2023-12-18T10:59:19.348Z,1016.39
2023-12-18T11:00:19.449Z,1016.43
2023-12-18T11:01:19.431Z,1016.40
2023-12-18T11:02:19.318Z,1016.37
2023-12-18T11:03:19.369Z,1016.37
2023-12-18T11:04:19.342Z,1016.34
2023-12-18T11:05:19.334Z,1016.29
2023-12-18T11:06:20.275Z,1016.33
2023-12-18T11:07:19.272Z,1016.34
2023-12-18T11:08:19.254Z,1016.29
2023-12-18T11:09:19.257Z,1016.33
2023-12-18T11:10:19.247Z,1016.29
2023-12-18T11:11:19.236Z,1016.32
2023-12-18T11:12:19.270Z,1016.30
2023-12-18T11:13:19.206Z,1016.31
2023-12-18T11:14:19.194Z,1016.35
2023-12-18T11:15:19.207Z,1016.30
2023-12-18T11:16:19.167Z,1016.31
2023-12-18T11:17:19.182Z,1016.33
2023-12-18T11:18:19.467Z,1016.32
2023-12-18T11:19:26.026Z,1016.27
2023-12-18T11:20:20.374Z,1016.27
2023-12-18T11:21:19.156Z,1016.29
2023-12-18T11:22:19.107Z,1016.28
2023-12-18T11:23:19.110Z,1016.23
2023-12-18T11:24:19.446Z,1016.20
2023-12-18T11:25:25.089Z,1016.21
2023-12-18T11:26:19.066Z,1016.19
2023-12-18T11:27:19.162Z,1016.20
2023-12-18T11:28:19.044Z,1016.28
2023-12-18T11:29:19.037Z,1016.20
2023-12-18T11:30:19.172Z,1016.21
2023-12-18T11:31:19.171Z,1016.22
2023-12-18T11:32:19.005Z,1016.22
2023-12-18T11:33:19.247Z,1016.15
2023-12-18T11:34:19.102Z,1016.12
2023-12-18T11:35:19.100Z,1016.14
2023-12-18T11:36:19.011Z,1016.11
2023-12-18T11:37:18.959Z,1016.07
2023-12-18T11:38:18.952Z,1016.05
2023-12-18T11:39:19.005Z,1016.00
2023-12-18T11:40:18.919Z,1015.96
2023-12-18T11:41:18.917Z,1015.95
2023-12-18T11:42:18.960Z,1015.90
2023-12-18T11:43:18.890Z,1015.90
2023-12-18T11:44:18.897Z,1015.90
2023-12-18T11:45:19.001Z,1015.91
2023-12-18T11:46:19.209Z,1015.87
2023-12-18T11:47:18.864Z,1015.86
2023-12-18T11:48:19.561Z,1015.89
2023-12-18T11:49:18.948Z,1015.90
2023-12-18T11:50:18.848Z,1015.89
2023-12-18T11:51:18.869Z,1015.88
2023-12-18T11:52:18.797Z,1015.87
2023-12-18T11:53:18.819Z,1015.85
2023-12-18T11:54:18.826Z,1015.80
2023-12-18T11:55:18.776Z,1015.76
2023-12-18T11:56:24.765Z,1015.76
2023-12-18T11:57:18.775Z,1015.72
2023-12-18T11:58:18.734Z,1015.72
2023-12-18T11:59:18.732Z,1015.69
2023-12-18T12:00:18.758Z,1015.65
2023-12-18T12:01:18.946Z,1015.63
2023-12-18T12:02:18.691Z,1015.59
2023-12-18T12:03:18.701Z,1015.61
2023-12-18T12:04:18.770Z,1015.62
2023-12-18T12:05:18.712Z,1015.61
2023-12-18T12:06:18.651Z,1015.61
2023-12-18T12:07:18.654Z,1015.56
2023-12-18T12:08:18.646Z,1015.61
2023-12-18T12:09:18.689Z,1015.59
2023-12-18T12:10:18.612Z,1015.56
2023-12-18T12:11:18.599Z,1015.60
2023-12-18T12:12:18.684Z,1015.55
2023-12-18T12:13:18.577Z,1015.57
2023-12-18T12:14:18.568Z,1015.54
2023-12-18T12:15:18.596Z,1015.57
2023-12-18T12:16:18.554Z,1015.57
2023-12-18T12:17:18.535Z,1015.56
2023-12-18T12:18:18.634Z,1015.54
2023-12-18T12:19:18.638Z,1015.49
2023-12-18T12:20:18.515Z,1015.46
2023-12-18T12:21:18.631Z,1015.41
2023-12-18T12:22:18.569Z,1015.43
2023-12-18T12:23:18.478Z,1015.37
2023-12-18T12:24:18.484Z,1015.34
2023-12-18T12:25:18.573Z,1015.33
2023-12-18T12:26:18.443Z,1015.31
2023-12-18T12:27:18.473Z,1015.28
2023-12-18T12:28:18.429Z,1015.25
2023-12-18T12:29:18.442Z,1015.26
2023-12-18T12:30:18.546Z,1015.28
2023-12-18T12:31:18.505Z,1015.25
2023-12-18T12:32:18.578Z,1015.27
2023-12-18T12:33:18.574Z,1015.30
2023-12-18T12:34:18.474Z,1015.29
2023-12-18T12:35:18.436Z,1015.20
2023-12-18T12:36:18.394Z,1015.21
2023-12-18T12:37:18.355Z,1015.22
2023-12-18T12:38:18.324Z,1015.14
2023-12-18T12:39:24.357Z,1015.20
2023-12-18T12:40:18.509Z,1015.15
2023-12-18T12:41:18.291Z,1015.14
2023-12-18T12:42:18.314Z,1015.12
2023-12-18T12:43:18.275Z,1015.07
2023-12-18T12:44:18.263Z,1015.07
2023-12-18T12:45:18.328Z,1015.06
2023-12-18T12:46:22.969Z,1015.03
2023-12-18T12:47:18.228Z,1015.01
2023-12-18T12:48:18.404Z,1015.02
2023-12-18T12:49:18.358Z,1015.00
2023-12-18T12:50:18.199Z,1014.96
2023-12-18T12:51:18.254Z,1014.96
2023-12-18T12:52:18.183Z,1014.91
2023-12-18T12:53:18.191Z,1014.85
2023-12-18T12:54:18.194Z,1014.88
2023-12-18T12:55:18.178Z,1014.78
2023-12-18T12:56:18.152Z,1014.85
2023-12-18T12:57:18.167Z,1014.86
2023-12-18T12:58:18.119Z,1014.85
2023-12-18T12:59:18.107Z,1014.86
2023-12-18T13:00:18.151Z,1014.89
2023-12-18T13:01:18.303Z,1014.89
2023-12-18T13:02:18.078Z,1014.87
2023-12-18T13:03:18.121Z,1014.88
2023-12-18T13:04:18.253Z,1014.90
2023-12-18T13:05:18.127Z,1014.85
2023-12-18T13:06:18.056Z,1014.87
2023-12-18T13:07:18.021Z,1014.87
2023-12-18T13:08:18.038Z,1014.87
2023-12-18T13:09:18.045Z,1014.85
2023-12-18T13:10:18.000Z,1014.83
2023-12-18T13:11:17.980Z,1014.81
2023-12-18T13:12:17.998Z,1014.76
2023-12-18T13:13:17.957Z,1014.74
2023-12-18T13:14:17.952Z,1014.69
2023-12-18T13:15:18.056Z,1014.66
2023-12-18T13:16:17.943Z,1014.66
2023-12-18T13:17:17.937Z,1014.64
2023-12-18T13:18:18.027Z,1014.63
2023-12-18T13:19:18.216Z,1014.61
2023-12-18T13:20:26.459Z,1014.57
2023-12-18T13:21:18.946Z,1014.61
2023-12-18T13:22:17.873Z,1014.60
2023-12-18T13:23:17.858Z,1014.57
2023-12-18T13:24:17.928Z,1014.55
2023-12-18T13:25:17.859Z,1014.51
2023-12-18T13:26:17.827Z,1014.59
2023-12-18T13:27:17.847Z,1014.57
2023-12-18T13:28:17.806Z,1014.60
2023-12-18T13:29:17.815Z,1014.65
2023-12-18T13:30:18.055Z,1014.59
2023-12-18T13:31:17.827Z,1014.63
2023-12-18T13:32:17.787Z,1014.61
2023-12-18T13:33:17.899Z,1014.62
2023-12-18T13:34:17.837Z,1014.62
2023-12-18T13:35:17.731Z,1014.59
2023-12-18T13:36:17.746Z,1014.58
2023-12-18T13:37:17.716Z,1014.57
2023-12-18T13:38:17.700Z,1014.57
2023-12-18T13:39:17.719Z,1014.54
2023-12-18T13:40:17.681Z,1014.58
2023-12-18T13:41:17.696Z,1014.55
2023-12-18T13:42:23.738Z,1014.54
2023-12-18T13:43:17.692Z,1014.53
2023-12-18T13:44:17.670Z,1014.52
2023-12-18T13:45:17.647Z,1014.47
2023-12-18T13:46:17.621Z,1014.49
2023-12-18T13:47:17.607Z,1014.52
2023-12-18T13:48:17.746Z,1014.55
2023-12-18T13:49:17.720Z,1014.57
2023-12-18T13:50:17.578Z,1014.56
2023-12-18T13:51:17.628Z,1014.57
2023-12-18T13:52:17.568Z,1014.59
2023-12-18T13:53:17.555Z,1014.60
2023-12-18T13:54:18.998Z,1014.60
2023-12-18T13:55:17.540Z,1014.60
2023-12-18T13:56:17.523Z,1014.61
2023-12-18T13:57:17.654Z,1014.61
2023-12-18T13:58:17.502Z,1014.57
2023-12-18T13:59:17.498Z,1014.57
2023-12-18T14:00:18.797Z,1014.62
2023-12-18T14:01:17.577Z,1014.62
2023-12-18T14:02:17.452Z,1014.63
2023-12-18T14:03:17.497Z,1014.61
2023-12-18T14:04:17.491Z,1014.56
2023-12-18T14:05:17.449Z,1014.59
2023-12-18T14:06:18.937Z,1014.61
2023-12-18T14:07:17.399Z,1014.59
2023-12-18T14:08:17.388Z,1014.53
2023-12-18T14:09:17.449Z,1014.54
2023-12-18T14:10:17.371Z,1014.51
2023-12-18T14:11:17.364Z,1014.44
2023-12-18T14:12:17.452Z,1014.40
2023-12-18T14:13:17.496Z,1014.46
2023-12-18T14:14:17.338Z,1014.45
2023-12-18T14:15:17.342Z,1014.43
2023-12-18T14:16:17.307Z,1014.42
2023-12-18T14:17:17.309Z,1014.38
2023-12-18T14:18:19.646Z,1014.42
2023-12-18T14:19:17.322Z,1014.42
2023-12-18T14:20:17.315Z,1014.37
2023-12-18T14:21:17.326Z,1014.41
2023-12-18T14:22:17.279Z,1014.39
2023-12-18T14:23:17.234Z,1014.45
2023-12-18T14:24:19.284Z,1014.43
2023-12-18T14:25:17.236Z,1014.41
2023-12-18T14:26:17.208Z,1014.44
2023-12-18T14:27:17.218Z,1014.42
2023-12-18T14:28:17.267Z,1014.43
2023-12-18T14:29:17.200Z,1014.40
2023-12-18T14:30:20.263Z,1014.37
2023-12-18T14:31:17.218Z,1014.37
2023-12-18T14:32:17.159Z,1014.36
2023-12-18T14:33:17.339Z,1014.32
2023-12-18T14:34:17.229Z,1014.31
2023-12-18T14:35:17.182Z,1014.35
2023-12-18T14:36:17.159Z,1014.33
2023-12-18T14:37:17.091Z,1014.33
2023-12-18T14:38:17.095Z,1014.35
2023-12-18T14:39:17.098Z,1014.33
2023-12-18T14:40:17.076Z,1014.26
2023-12-18T14:41:17.054Z,1014.27
2023-12-18T14:42:17.058Z,1014.24
2023-12-18T14:43:17.035Z,1014.24
2023-12-18T14:44:17.026Z,1014.22
2023-12-18T14:45:17.068Z,1014.18
2023-12-18T14:46:17.545Z,1014.18
2023-12-18T14:47:16.989Z,1014.14
2023-12-18T14:48:22.839Z,1014.12
2023-12-18T14:49:18.104Z,1014.11
2023-12-18T14:50:17.278Z,1014.05
2023-12-18T14:51:17.090Z,1014.01
2023-12-18T14:52:16.948Z,1013.95
2023-12-18T14:53:16.932Z,1013.96
2023-12-18T14:54:16.938Z,1013.88
2023-12-18T14:55:16.912Z,1013.87
2023-12-18T14:56:23.843Z,1013.92
2023-12-18T14:57:17.941Z,1013.93
2023-12-18T14:58:16.879Z,1013.97
2023-12-18T14:59:16.876Z,1013.99
2023-12-18T15:00:16.897Z,1014.04
2023-12-18T15:01:16.992Z,1014.08
2023-12-18T15:02:16.846Z,1014.15
2023-12-18T15:03:16.931Z,1014.17
2023-12-18T15:04:22.913Z,1014.15
2023-12-18T15:05:17.904Z,1014.11
2023-12-18T15:06:16.852Z,1014.11
2023-12-18T15:07:16.900Z,1014.08
2023-12-18T15:08:16.839Z,1014.08
2023-12-18T15:09:16.826Z,1014.09
2023-12-18T15:10:16.755Z,1014.09
2023-12-18T15:11:16.744Z,1014.13
2023-12-18T15:12:16.840Z,1014.12
2023-12-18T15:13:16.731Z,1014.11
2023-12-18T15:14:16.714Z,1014.13
2023-12-18T15:15:16.743Z,1014.12
2023-12-18T15:16:16.695Z,1014.13
2023-12-18T15:17:16.712Z,1014.10
2023-12-18T15:18:16.934Z,1014.08
2023-12-18T15:19:16.845Z,1014.06
2023-12-18T15:20:16.809Z,1014.06
2023-12-18T15:21:16.710Z,1014.02
2023-12-18T15:22:16.639Z,1014.07
2023-12-18T15:23:16.624Z,1014.06
2023-12-18T15:24:16.710Z,1014.06
2023-12-18T15:25:16.605Z,1014.11
2023-12-18T15:26:16.615Z,1014.06
2023-12-18T15:27:16.629Z,1014.08
2023-12-18T15:28:16.587Z,1014.10
2023-12-18T15:29:16.584Z,1014.08
2023-12-18T15:30:16.724Z,1014.04
2023-12-18T15:31:16.798Z,1014.03
2023-12-18T15:32:16.541Z,1014.02
2023-12-18T15:33:18.066Z,1014.07
2023-12-18T15:34:16.659Z,1014.05
2023-12-18T15:35:16.682Z,1014.06
2023-12-18T15:36:18.442Z,1014.07
2023-12-18T15:37:16.542Z,1014.06
2023-12-18T15:38:16.475Z,1014.04
2023-12-18T15:39:16.508Z,1014.09
2023-12-18T15:40:16.520Z,1014.11
2023-12-18T15:41:16.442Z,1014.10
2023-12-18T15:42:16.495Z,1014.07
2023-12-18T15:43:16.455Z,1014.12
2023-12-18T15:44:16.409Z,1014.09
2023-12-18T15:45:16.440Z,1014.08
2023-12-18T15:46:16.399Z,1014.10
2023-12-18T15:47:16.380Z,1014.13
2023-12-18T15:48:16.959Z,1014.23
2023-12-18T15:49:16.559Z,1014.20
2023-12-18T15:50:16.551Z,1014.26
2023-12-18T15:51:16.371Z,1014.19
2023-12-18T15:52:16.334Z,1014.18
2023-12-18T15:53:16.330Z,1014.13
2023-12-18T15:54:16.323Z,1014.09
2023-12-18T15:55:16.300Z,1014.09
2023-12-18T15:56:16.367Z,1014.05
2023-12-18T15:57:16.302Z,1014.02
2023-12-18T15:58:16.263Z,1013.98
2023-12-18T15:59:16.314Z,1013.99
2023-12-18T16:00:16.319Z,1013.93
2023-12-18T16:01:16.383Z,1013.87
2023-12-18T16:02:16.233Z,1013.91
2023-12-18T16:03:22.318Z,1013.88
2023-12-18T16:04:16.315Z,1013.88
2023-12-18T16:05:16.257Z,1013.89
2023-12-18T16:06:16.231Z,1013.90
2023-12-18T16:07:22.190Z,1013.94
2023-12-18T16:08:16.168Z,1013.94
2023-12-18T16:09:16.221Z,1013.93
2023-12-18T16:10:16.150Z,1013.92
2023-12-18T16:11:16.138Z,1013.94
2023-12-18T16:12:16.166Z,1013.98
2023-12-18T16:13:16.179Z,1013.97
2023-12-18T16:14:16.107Z,1014.02
2023-12-18T16:15:16.113Z,1014.00
2023-12-18T16:16:16.139Z,1013.92
2023-12-18T16:17:16.144Z,1013.93
2023-12-18T16:18:16.300Z,1013.90
2023-12-18T16:19:16.186Z,1013.83
2023-12-18T16:21:16.142Z,1013.83
2023-12-18T16:22:16.106Z,1013.82
2023-12-18T16:31:16.105Z,1013.94
2023-12-18T16:33:16.161Z,1013.87
2023-12-18T16:34:16.088Z,1013.88
2023-12-18T16:35:16.073Z,1013.89
2023-12-18T16:37:15.971Z,1013.95
2023-12-18T16:39:15.952Z,1013.91
2023-12-18T16:40:15.907Z,1013.84
2023-12-18T16:43:15.874Z,1013.94
2023-12-18T16:45:15.865Z,1013.96
2023-12-18T16:46:15.849Z,1013.91
2023-12-18T16:47:15.823Z,1013.87
2023-12-18T16:48:16.023Z,1013.76
2023-12-18T16:49:15.957Z,1013.76
2023-12-18T16:50:15.800Z,1013.79
2023-12-18T16:51:15.807Z,1013.82
2023-12-18T17:08:15.616Z,1013.93
2023-12-18T17:12:15.593Z,1013.93
2023-12-18T17:14:15.562Z,1014.17
2023-12-18T17:15:15.650Z,1014.23
2023-12-18T17:16:15.537Z,1014.23
2023-12-18T17:19:15.582Z,1014.13
2023-12-18T17:25:15.532Z,1014.39
2023-12-18T17:27:15.503Z,1014.44
2023-12-18T17:28:15.410Z,1014.38
2023-12-18T17:31:15.510Z,1014.29
2023-12-18T18:49:14.630Z,1013.73
2023-12-18T18:51:14.615Z,1013.67
2023-12-18T18:53:14.557Z,1013.73
2023-12-18T18:55:14.539Z,1013.57
2023-12-18T18:58:14.617Z,1013.39
2023-12-18T19:01:14.580Z,1013.42
2023-12-18T19:02:15.776Z,1013.51
2023-12-18T19:04:14.606Z,1013.49
2023-12-18T19:05:14.671Z,1013.46
2023-12-18T19:06:14.460Z,1013.48
2023-12-18T19:07:14.625Z,1013.48
2023-12-18T19:08:14.408Z,1013.53
2023-12-18T19:09:14.401Z,1013.54
2023-12-18T19:10:14.386Z,1013.62
2023-12-18T19:11:14.376Z,1013.69
2023-12-18T19:12:14.393Z,1013.73
2023-12-18T19:13:14.357Z,1013.85
2023-12-18T19:14:14.553Z,1013.93
2023-12-18T19:15:14.392Z,1013.99
2023-12-18T19:16:14.333Z,1013.99
2023-12-18T19:17:14.337Z,1014.05
2023-12-18T19:18:14.629Z,1014.06
2023-12-18T19:19:14.391Z,1014.03
2023-12-18T19:20:14.304Z,1014.06
2023-12-18T19:21:14.285Z,1014.17
2023-12-18T19:22:20.282Z,1014.22
2023-12-18T19:23:14.249Z,1014.22
2023-12-18T19:24:14.263Z,1014.21
2023-12-18T19:25:14.253Z,1014.26
2023-12-18T19:26:14.227Z,1014.26
2023-12-18T19:27:14.230Z,1014.31
2023-12-18T19:28:14.225Z,1014.35
2023-12-18T19:29:14.199Z,1014.27
2023-12-18T19:30:14.325Z,1014.28
2023-12-18T19:31:14.264Z,1014.27
2023-12-18T19:32:14.161Z,1014.22
2023-12-18T19:33:14.269Z,1014.21
2023-12-18T19:34:14.221Z,1014.11
2023-12-18T19:35:14.137Z,1014.11
2023-12-18T19:36:14.182Z,1014.15
2023-12-18T19:37:14.122Z,1014.13
2023-12-18T19:38:14.102Z,1014.10
2023-12-18T19:39:14.089Z,1014.08
2023-12-18T19:40:14.081Z,1014.05
2023-12-18T19:41:14.074Z,1014.03
2023-12-18T19:42:14.169Z,1014.01
2023-12-18T19:43:14.046Z,1014.05
2023-12-18T19:44:14.042Z,1014.09
2023-12-18T19:45:14.031Z,1014.02
2023-12-18T19:46:14.025Z,1014.09
2023-12-18T19:47:14.013Z,1014.11
2023-12-18T19:48:14.056Z,1014.12
2023-12-18T19:49:21.590Z,1014.12
2023-12-18T19:50:14.269Z,1014.11
2023-12-18T19:51:13.977Z,1014.07
2023-12-18T19:52:13.960Z,1013.99
2023-12-18T19:53:19.959Z,1013.96
2023-12-18T19:54:13.941Z,1013.98
2023-12-18T19:55:13.941Z,1013.94
2023-12-18T19:56:13.918Z,1013.95
2023-12-18T19:57:13.921Z,1013.85
2023-12-18T19:58:13.897Z,1013.84
2023-12-18T19:59:13.890Z,1013.87
2023-12-18T20:00:13.918Z,1013.78
2023-12-18T20:01:14.019Z,1013.82
2023-12-18T20:02:13.870Z,1013.77
2023-12-18T20:03:13.879Z,1013.72
2023-12-18T20:04:13.903Z,1013.62
2023-12-18T20:05:13.859Z,1013.61
2023-12-18T20:06:13.875Z,1013.61
2023-12-18T20:07:13.925Z,1013.60
2023-12-18T20:08:13.807Z,1013.66
2023-12-18T20:09:13.787Z,1013.61
2023-12-18T20:10:13.786Z,1013.54
2023-12-18T20:11:13.766Z,1013.60
2023-12-18T20:12:13.773Z,1013.64
2023-12-18T20:13:13.784Z,1013.70
2023-12-18T20:14:13.745Z,1013.72
2023-12-18T20:15:13.721Z,1013.71
2023-12-18T20:16:13.713Z,1013.67
2023-12-18T20:17:13.707Z,1013.63
2023-12-18T20:18:13.772Z,1013.59
2023-12-18T20:19:13.767Z,1013.55
2023-12-18T20:20:13.699Z,1013.52
2023-12-18T20:21:13.693Z,1013.54
2023-12-18T20:22:13.695Z,1013.61
2023-12-18T20:23:13.643Z,1013.68
2023-12-18T20:24:13.629Z,1013.70
2023-12-18T20:25:13.621Z,1013.73
2023-12-18T20:26:13.618Z,1013.75
2023-12-18T20:27:13.605Z,1013.76
2023-12-18T20:28:13.597Z,1013.77
2023-12-18T20:29:13.590Z,1013.74
2023-12-18T20:30:13.571Z,1013.71
2023-12-18T20:31:13.656Z,1013.64
2023-12-18T20:32:13.558Z,1013.64
2023-12-18T20:33:13.607Z,1013.62
2023-12-18T20:34:13.577Z,1013.58
2023-12-18T20:35:13.531Z,1013.56
2023-12-18T20:36:13.523Z,1013.61
2023-12-18T20:37:13.524Z,1013.68
2023-12-18T20:38:13.502Z,1013.70
2023-12-18T20:39:13.495Z,1013.65
2023-12-18T20:40:13.473Z,1013.76